createdAt,value
2018-06-13T00:02:00.008Z,86.70
2018-06-13T00:04:28.112Z,87.60
2018-06-13T00:06:56.272Z,87.30
2018-06-13T00:09:24.360Z,87.90
2018-06-13T00:11:52.444Z,88.30
2018-06-13T00:14:20.570Z,88.40
2018-06-13T00:16:48.676Z,88.10
2018-06-13T00:19:16.756Z,88.30
2018-06-13T00:21:44.852Z,89.30
2018-06-13T00:24:12.960Z,88.90
2018-06-13T00:26:41.095Z,88.90
2018-06-13T00:29:10.178Z,88.90
2018-06-13T00:31:38.285Z,88.90
2018-06-13T00:34:06.407Z,88.70
2018-06-13T00:36:34.505Z,88.10
2018-06-13T00:39:02.583Z,88.20
2018-06-13T00:41:30.668Z,87.00
2018-06-13T00:46:26.644Z,87.50
2018-06-13T00:48:54.740Z,86.40
2018-06-13T00:51:22.840Z,86.30
2018-06-13T00:53:50.939Z,85.80
2018-06-13T00:56:29.995Z,86.10
2018-06-13T00:58:58.124Z,85.20
2018-06-13T01:01:26.447Z,86.80
2018-06-13T01:03:54.784Z,86.20
2018-06-13T01:06:22.916Z,85.50
2018-06-13T01:08:51.074Z,87.40
2018-06-13T01:11:19.164Z,85.00
2018-06-13T01:13:47.351Z,86.10
2018-06-13T01:16:15.473Z,85.90
2018-06-13T01:18:44.475Z,85.40
2018-06-13T01:21:12.573Z,84.60
2018-06-13T01:23:40.714Z,86.10
2018-06-13T01:26:08.799Z,85.80
2018-06-13T01:28:36.890Z,85.80
2018-06-13T01:31:04.983Z,86.20
2018-06-13T01:33:33.145Z,85.60
2018-06-13T01:36:01.278Z,85.90
2018-06-13T01:38:29.348Z,85.30
2018-06-13T01:40:57.457Z,86.10
2018-06-13T01:43:25.551Z,86.10
2018-06-13T01:45:53.652Z,86.40
2018-06-13T01:48:21.769Z,86.70
2018-06-13T01:50:54.787Z,86.40
2018-06-13T01:53:23.157Z,86.10
2018-06-13T01:55:51.268Z,86.60
2018-06-13T01:58:19.890Z,86.30
2018-06-13T02:00:47.972Z,86.50
2018-06-13T02:03:16.090Z,85.70
2018-06-13T02:05:44.595Z,86.30
2018-06-13T02:08:12.686Z,87.20
2018-06-13T02:10:40.792Z,86.70
2018-06-13T02:13:08.889Z,87.20
2018-06-13T02:15:36.987Z,86.40
2018-06-13T02:20:32.951Z,87.00
2018-06-13T02:23:01.049Z,87.20
2018-06-13T02:25:29.787Z,87.70
2018-06-13T02:27:57.872Z,88.10
2018-06-13T02:30:25.974Z,88.70
2018-06-13T02:32:54.186Z,89.20
2018-06-13T02:35:22.307Z,88.90
2018-06-13T02:37:50.396Z,88.90
2018-06-13T02:40:18.495Z,89.40
2018-06-13T02:42:46.615Z,89.10
2018-06-13T02:45:14.725Z,88.30
2018-06-13T02:47:42.820Z,88.80
2018-06-13T02:50:10.903Z,88.60
2018-06-13T02:52:38.992Z,88.70
2018-06-13T02:55:07.166Z,88.10
2018-06-13T02:57:35.265Z,88.30
2018-06-13T03:00:03.380Z,89.50
2018-06-13T03:02:31.497Z,88.60
2018-06-13T03:04:59.584Z,88.70
2018-06-13T03:07:27.764Z,88.70
2018-06-13T03:09:55.844Z,88.40
2018-06-13T03:12:23.937Z,88.70
2018-06-13T03:14:52.040Z,88.60
2018-06-13T03:17:20.137Z,89.00
2018-06-13T03:19:48.219Z,88.80
2018-06-13T03:22:16.307Z,88.90
2018-06-13T03:24:44.750Z,89.10
2018-06-13T03:27:12.844Z,88.60
2018-06-13T03:29:40.932Z,89.20
2018-06-13T03:32:09.093Z,88.60
2018-06-13T03:34:37.170Z,88.20
2018-06-13T03:37:05.300Z,88.10
2018-06-13T03:39:33.388Z,88.10
2018-06-13T03:42:01.472Z,88.50
2018-06-13T03:44:29.552Z,87.90
2018-06-13T03:46:57.644Z,88.20
2018-06-13T03:49:25.777Z,88.10
2018-06-13T03:51:53.873Z,87.20
2018-06-13T03:54:22.018Z,87.10
2018-06-13T03:56:50.120Z,87.40
2018-06-13T03:59:18.203Z,87.30
2018-06-13T04:01:46.330Z,88.10
2018-06-13T04:04:14.419Z,88.30
2018-06-13T04:06:42.691Z,88.20
2018-06-13T04:09:11.166Z,88.90
2018-06-13T04:11:39.240Z,88.10
2018-06-13T04:14:07.316Z,88.30
2018-06-13T04:16:35.430Z,88.30
2018-06-13T04:19:03.519Z,88.70
2018-06-13T04:21:31.608Z,89.10
2018-06-13T04:23:59.704Z,89.20
2018-06-13T04:26:27.804Z,88.60
2018-06-13T04:28:55.999Z,89.10
2018-06-13T04:31:24.799Z,88.00
2018-06-13T04:33:52.892Z,89.30
2018-06-13T04:36:20.979Z,89.30
2018-06-13T04:38:49.076Z,88.90
2018-06-13T04:41:17.162Z,89.70
2018-06-13T04:43:45.451Z,90.00
2018-06-13T04:46:14.407Z,89.60
2018-06-13T04:48:42.502Z,88.70
2018-06-13T04:51:10.572Z,88.80
2018-06-13T04:53:38.751Z,89.50
2018-06-13T04:56:06.860Z,88.80
2018-06-13T04:58:34.933Z,88.90
2018-06-13T05:01:03.024Z,89.50
2018-06-13T05:03:31.108Z,90.20
2018-06-13T05:05:59.202Z,89.60
2018-06-13T05:08:27.304Z,89.50
2018-06-13T05:10:55.685Z,89.20
2018-06-13T05:13:23.776Z,89.30
2018-06-13T05:15:51.858Z,90.00
2018-06-13T05:18:19.937Z,89.50
2018-06-13T05:20:48.055Z,88.80
2018-06-13T05:23:16.143Z,88.90
2018-06-13T05:25:45.012Z,89.10
2018-06-13T05:28:13.122Z,88.70
2018-06-13T05:30:41.225Z,87.80
2018-06-13T05:35:37.202Z,89.40
2018-06-13T05:38:05.318Z,88.60
2018-06-13T05:40:37.864Z,87.90
2018-06-13T05:43:07.969Z,88.50
2018-06-13T05:45:36.328Z,87.90
2018-06-13T05:48:04.625Z,87.80
2018-06-13T05:50:32.704Z,87.30
2018-06-13T05:53:01.435Z,87.30
2018-06-13T05:55:29.564Z,84.80
2018-06-13T05:57:57.976Z,85.00
2018-06-13T06:00:26.091Z,83.80
2018-06-13T06:02:54.464Z,84.30
2018-06-13T06:05:22.555Z,84.10
2018-06-13T06:07:50.643Z,82.70
2018-06-13T06:10:18.804Z,83.70
2018-06-13T06:12:46.844Z,83.00
2018-06-13T06:15:14.932Z,81.90
2018-06-13T06:17:43.052Z,82.80
2018-06-13T06:20:11.162Z,83.10
2018-06-13T06:22:39.288Z,83.10
2018-06-13T06:25:07.408Z,82.00
2018-06-13T06:27:35.514Z,81.70
2018-06-13T06:30:03.602Z,81.30
2018-06-13T06:32:31.696Z,82.20
2018-06-13T06:34:59.784Z,81.90
2018-06-13T06:37:27.897Z,82.20
2018-06-13T06:39:55.999Z,81.70
2018-06-13T06:42:24.184Z,82.00
2018-06-13T06:44:52.347Z,80.70
2018-06-13T06:47:20.464Z,81.20
2018-06-13T06:49:48.711Z,81.00
2018-06-13T06:55:03.463Z,78.40
2018-06-13T06:57:31.800Z,79.70
2018-06-13T07:00:00.244Z,79.90
2018-06-13T07:02:28.324Z,78.80
2018-06-13T07:04:56.428Z,78.70
2018-06-13T07:07:24.556Z,76.60
2018-06-13T07:09:52.655Z,75.30
2018-06-13T07:12:20.762Z,77.70
2018-06-13T07:14:48.865Z,77.90
2018-06-13T07:17:17.503Z,77.70
2018-06-13T07:19:45.683Z,77.40
2018-06-13T07:22:13.784Z,77.80
2018-06-13T07:24:41.909Z,75.60
2018-06-13T07:27:10.559Z,74.80
2018-06-13T07:29:38.658Z,75.60
2018-06-13T07:32:06.811Z,75.60
2018-06-13T07:34:34.905Z,75.40
2018-06-13T07:37:03.009Z,74.80
2018-06-13T07:41:59.042Z,74.20
2018-06-13T07:44:27.200Z,74.10
2018-06-13T07:46:55.312Z,72.20
2018-06-13T07:49:23.423Z,72.30
2018-06-13T07:51:51.540Z,72.50
2018-06-13T07:54:19.673Z,69.70
2018-06-13T07:56:47.787Z,71.00
2018-06-13T07:59:15.880Z,70.40
2018-06-13T08:01:43.978Z,67.00
2018-06-13T08:04:12.180Z,66.50
2018-06-13T08:06:40.629Z,64.90
2018-06-13T08:09:08.716Z,65.10
2018-06-13T08:11:37.166Z,62.70
2018-06-13T08:14:05.272Z,61.50
2018-06-13T08:16:33.368Z,62.90
2018-06-13T08:19:01.524Z,61.60
2018-06-13T08:21:29.604Z,60.90
2018-06-13T08:23:57.807Z,61.30
2018-06-13T08:26:25.905Z,60.70
2018-06-13T08:28:53.999Z,59.50
2018-06-13T08:31:22.080Z,62.60
2018-06-13T08:33:50.198Z,62.00
2018-06-13T08:36:18.272Z,62.30
2018-06-13T08:38:46.349Z,63.70
2018-06-13T08:41:14.472Z,62.10
2018-06-13T08:43:42.580Z,63.30
2018-06-13T08:46:10.671Z,67.00
2018-06-13T08:48:38.799Z,65.50
2018-06-13T08:51:06.875Z,66.70
2018-06-13T08:53:34.964Z,66.30
2018-06-13T08:56:03.851Z,67.00
2018-06-13T08:58:34.073Z,69.40
2018-06-13T09:01:02.176Z,68.50
2018-06-13T09:03:30.272Z,66.80
2018-06-13T09:05:58.392Z,67.50
2018-06-13T09:08:26.500Z,67.90
2018-06-13T09:10:54.598Z,66.70
2018-06-13T09:13:22.691Z,67.30
2018-06-13T09:15:50.852Z,66.10
2018-06-13T09:18:18.946Z,63.90
2018-06-13T09:20:47.053Z,62.80
2018-06-13T09:23:15.163Z,63.70
2018-06-13T09:28:17.604Z,62.10
2018-06-13T09:30:45.684Z,63.10
2018-06-13T09:33:13.819Z,63.90
2018-06-13T09:35:41.916Z,63.40
2018-06-13T09:38:10.018Z,62.20
2018-06-13T09:40:38.263Z,60.10
2018-06-13T09:43:06.358Z,60.80
2018-06-13T09:45:34.656Z,62.00
2018-06-13T09:48:02.816Z,61.60
2018-06-13T09:50:30.896Z,62.60
2018-06-13T09:52:58.983Z,64.40
2018-06-13T09:55:27.079Z,63.80
2018-06-13T09:57:55.167Z,64.80
2018-06-13T10:00:28.796Z,65.00
2018-06-13T10:02:56.884Z,65.80
2018-06-13T10:05:25.017Z,64.00
2018-06-13T10:07:53.116Z,63.10
2018-06-13T10:10:21.204Z,64.20
2018-06-13T10:12:49.303Z,64.00
2018-06-13T10:15:17.404Z,62.50
2018-06-13T10:17:45.606Z,62.40
2018-06-13T10:20:13.688Z,59.80
2018-06-13T10:22:41.784Z,62.40
2018-06-13T10:25:09.881Z,58.70
2018-06-13T10:27:40.254Z,59.90
2018-06-13T10:30:08.351Z,57.80
2018-06-13T10:32:36.471Z,58.30
2018-06-13T10:35:04.565Z,58.70
2018-06-13T10:37:32.638Z,58.80
2018-06-13T10:40:00.747Z,57.50
2018-06-13T10:42:28.853Z,58.80
2018-06-13T10:44:56.945Z,57.90
2018-06-13T10:47:25.039Z,58.00
2018-06-13T10:49:53.137Z,58.20
2018-06-13T10:52:21.216Z,58.70
2018-06-13T10:54:49.324Z,57.70
2018-06-13T10:57:17.416Z,59.40
2018-06-13T10:59:45.760Z,58.10
2018-06-13T11:02:13.832Z,56.10
2018-06-13T11:04:41.945Z,57.30
2018-06-13T11:07:10.023Z,56.80
2018-06-13T11:09:38.120Z,55.50
2018-06-13T11:12:06.355Z,55.70
2018-06-13T11:14:34.463Z,54.10
2018-06-13T11:17:02.580Z,52.10
2018-06-13T11:19:30.665Z,51.30
2018-06-13T11:21:58.736Z,53.40
2018-06-13T11:24:26.831Z,54.20
2018-06-13T11:26:54.963Z,55.10
2018-06-13T11:29:23.044Z,55.80
2018-06-13T11:31:51.149Z,56.20
2018-06-13T11:34:19.281Z,56.00
2018-06-13T11:36:47.418Z,56.40
2018-06-13T11:41:43.468Z,56.50
2018-06-13T11:46:41.784Z,56.40
2018-06-13T11:49:09.892Z,55.20
2018-06-13T11:51:38.168Z,55.30
2018-06-13T11:54:07.184Z,53.80
2018-06-13T11:56:35.265Z,53.70
2018-06-13T11:59:03.388Z,54.80
2018-06-13T12:01:31.485Z,54.80
2018-06-13T12:04:03.598Z,53.20
2018-06-13T12:06:32.664Z,52.10
2018-06-13T12:09:06.346Z,51.80
2018-06-13T12:14:34.503Z,52.40
2018-06-13T12:17:02.622Z,53.10
2018-06-13T12:19:30.728Z,52.40
2018-06-13T12:21:58.864Z,51.40
2018-06-13T12:24:27.120Z,51.40
2018-06-13T12:26:55.214Z,52.20
2018-06-13T12:29:23.313Z,50.80
2018-06-13T12:31:51.389Z,50.40
2018-06-13T12:34:19.612Z,49.80
2018-06-13T12:36:47.644Z,49.10
2018-06-13T12:39:15.733Z,49.20
2018-06-13T12:41:43.803Z,48.80
2018-06-13T12:44:11.891Z,49.20
2018-06-13T12:46:39.963Z,49.00
2018-06-13T12:49:08.038Z,49.00
2018-06-13T12:51:36.107Z,48.60
2018-06-13T12:56:51.870Z,47.20
2018-06-13T12:59:21.517Z,49.20
2018-06-13T13:04:35.857Z,50.40
2018-06-13T13:07:10.925Z,49.70
2018-06-13T13:09:39.184Z,49.80
2018-06-13T13:12:08.456Z,49.10
2018-06-13T13:14:46.563Z,48.70
2018-06-13T13:17:14.990Z,47.50
2018-06-13T13:19:43.071Z,47.10
2018-06-13T13:22:21.777Z,47.40
2018-06-13T13:24:49.916Z,46.70
2018-06-13T13:27:19.668Z,47.40
2018-06-13T13:29:48.449Z,48.30
2018-06-13T13:32:22.164Z,47.30
2018-06-13T13:34:50.499Z,45.60
2018-06-13T13:37:19.671Z,43.40
2018-06-13T13:39:48.425Z,43.60
2018-06-13T13:42:17.273Z,44.20
2018-06-13T13:44:46.148Z,43.90
2018-06-13T13:47:14.263Z,43.40
2018-06-13T13:49:42.575Z,43.10
2018-06-13T13:52:10.785Z,42.60
2018-06-13T13:54:39.900Z,44.00
2018-06-13T13:57:07.998Z,42.70
2018-06-13T13:59:36.074Z,42.50
2018-06-13T14:02:04.197Z,44.20
2018-06-13T14:04:32.276Z,44.30
2018-06-13T14:07:00.421Z,44.90
2018-06-13T14:09:28.507Z,44.70
2018-06-13T14:11:56.607Z,45.20
2018-06-13T14:14:24.728Z,46.60
2018-06-13T14:16:52.811Z,44.60
2018-06-13T14:19:20.893Z,45.80
2018-06-13T14:21:48.984Z,43.90
2018-06-13T14:24:17.160Z,42.80
2018-06-13T14:26:46.263Z,42.70
2018-06-13T14:29:15.433Z,41.90
2018-06-13T14:32:08.752Z,43.50
2018-06-13T14:34:36.830Z,44.20
2018-06-13T14:37:04.887Z,44.00
2018-06-13T14:39:33.007Z,45.00
2018-06-13T14:42:01.089Z,43.80
2018-06-13T14:44:29.231Z,43.40
2018-06-13T14:46:57.342Z,42.90
2018-06-13T14:49:25.490Z,44.10
2018-06-13T14:51:54.627Z,42.20
2018-06-13T14:54:22.712Z,43.80
2018-06-13T14:56:50.919Z,43.80
2018-06-13T14:59:19.021Z,44.40
2018-06-13T15:01:47.139Z,43.40
2018-06-13T15:04:19.580Z,42.80
2018-06-13T15:06:48.594Z,43.40
2018-06-13T15:09:16.659Z,42.90
2018-06-13T15:11:44.819Z,43.10
2018-06-13T15:14:12.955Z,43.40
2018-06-13T15:16:41.022Z,43.30
2018-06-13T15:19:09.127Z,42.80
2018-06-13T15:21:37.181Z,43.00
2018-06-13T15:24:05.271Z,43.00
2018-06-13T15:26:33.428Z,42.90
2018-06-13T15:29:01.633Z,42.20
2018-06-13T15:31:29.745Z,43.80
2018-06-13T15:33:57.820Z,45.10
2018-06-13T15:36:25.936Z,44.50
2018-06-13T15:38:54.020Z,44.20
2018-06-13T15:41:22.076Z,43.50
2018-06-13T15:43:50.323Z,44.30
2018-06-13T15:46:19.245Z,43.30
2018-06-13T15:48:47.300Z,43.60
2018-06-13T15:51:17.210Z,44.20
2018-06-13T15:53:45.285Z,44.50
2018-06-13T15:56:13.355Z,45.00
2018-06-13T15:58:41.472Z,45.60
2018-06-13T16:01:09.610Z,43.90
2018-06-13T16:03:37.696Z,45.60
2018-06-13T16:06:05.803Z,46.10
2018-06-13T16:08:33.884Z,44.20
2018-06-13T16:11:01.994Z,44.70
2018-06-13T16:13:30.031Z,45.30
2018-06-13T16:15:58.108Z,44.20
2018-06-13T16:20:54.065Z,44.80
2018-06-13T16:23:22.162Z,45.30
2018-06-13T16:25:50.252Z,44.60
2018-06-13T16:28:18.547Z,45.60
2018-06-13T16:30:46.702Z,45.90
2018-06-13T16:33:14.847Z,47.00
2018-06-13T16:35:43.215Z,46.90
2018-06-13T16:38:11.432Z,47.50
2018-06-13T16:40:39.523Z,46.10
2018-06-13T16:43:07.694Z,46.50
2018-06-13T16:45:36.084Z,47.30
2018-06-13T16:48:05.225Z,46.60
2018-06-13T16:50:51.366Z,46.60
2018-06-13T16:53:31.029Z,46.90
2018-06-13T16:55:59.178Z,46.50
2018-06-13T16:58:27.469Z,47.10
2018-06-13T17:00:55.561Z,47.10
2018-06-13T17:03:31.572Z,47.70
2018-06-13T17:06:00.314Z,47.00
2018-06-13T17:08:28.647Z,47.10
2018-06-13T17:10:56.737Z,48.00
2018-06-13T17:13:24.835Z,47.40
2018-06-13T17:18:20.866Z,46.70
2018-06-13T17:20:49.128Z,46.60
2018-06-13T17:23:17.216Z,47.50
2018-06-13T17:25:45.314Z,46.90
2018-06-13T17:28:13.433Z,48.00
2018-06-13T17:30:41.520Z,46.70
2018-06-13T17:33:09.603Z,46.70
2018-06-13T17:35:37.721Z,47.60
2018-06-13T17:38:05.833Z,47.10
2018-06-13T17:40:33.945Z,47.60
2018-06-13T17:45:29.911Z,48.00
2018-06-13T17:47:58.231Z,48.40
2018-06-13T17:50:26.352Z,48.30
2018-06-13T17:52:54.847Z,48.30
2018-06-13T17:55:22.953Z,49.20
2018-06-13T17:57:51.056Z,49.30
2018-06-13T18:00:19.260Z,49.80
2018-06-13T18:02:47.388Z,49.70
2018-06-13T18:05:15.506Z,49.40
2018-06-13T18:07:43.612Z,49.00
2018-06-13T18:10:11.711Z,49.60
2018-06-13T18:12:39.963Z,49.20
2018-06-13T18:15:08.080Z,49.70
2018-06-13T18:17:36.278Z,50.70
2018-06-13T18:20:05.033Z,50.40
2018-06-13T18:22:33.086Z,50.50
2018-06-13T18:25:01.260Z,49.80
2018-06-13T18:27:29.471Z,50.40
2018-06-13T18:29:57.636Z,49.30
2018-06-13T18:32:25.740Z,50.30
2018-06-13T18:34:53.844Z,50.30
2018-06-13T18:37:22.130Z,49.40
2018-06-13T18:39:50.299Z,50.10
2018-06-13T18:42:18.359Z,49.50
2018-06-13T18:44:46.454Z,50.10
2018-06-13T18:47:14.591Z,49.90
2018-06-13T18:49:42.703Z,50.30
2018-06-13T18:52:10.837Z,50.40
2018-06-13T18:54:38.914Z,50.80
2018-06-13T18:57:07.000Z,50.50
2018-06-13T18:59:35.089Z,51.00
2018-06-13T19:02:03.200Z,50.90
2018-06-13T19:04:31.293Z,50.50
2018-06-13T19:06:59.381Z,50.10
2018-06-13T19:09:27.484Z,50.00
2018-06-13T19:11:55.571Z,49.50
2018-06-13T19:14:24.224Z,50.00
2018-06-13T19:16:52.348Z,50.80
2018-06-13T19:19:20.447Z,49.70
2018-06-13T19:21:49.236Z,49.70
2018-06-13T19:24:17.332Z,49.60
2018-06-13T19:26:45.484Z,49.30
2018-06-13T19:29:14.604Z,51.10
2018-06-13T19:31:42.744Z,51.90
2018-06-13T19:34:10.819Z,52.60
2018-06-13T19:36:38.975Z,52.80
2018-06-13T19:39:08.532Z,53.30
2018-06-13T19:41:36.640Z,53.70
2018-06-13T19:44:04.760Z,54.20
2018-06-13T19:46:32.851Z,55.30
2018-06-13T19:49:00.940Z,55.10
2018-06-13T19:51:29.117Z,54.90
2018-06-13T19:54:02.551Z,55.50
2018-06-13T19:56:31.896Z,56.00
2018-06-13T19:59:00.077Z,57.80
2018-06-13T20:01:28.208Z,58.50
2018-06-13T20:04:01.680Z,58.20
2018-06-13T20:06:29.902Z,58.40
2018-06-13T20:08:57.997Z,58.30
2018-06-13T20:11:26.144Z,58.40
2018-06-13T20:13:59.687Z,58.10
2018-06-13T20:16:44.648Z,58.50
2018-06-13T20:19:18.340Z,58.50
2018-06-13T20:21:46.508Z,59.70
2018-06-13T20:24:14.745Z,60.30
2018-06-13T20:26:48.391Z,60.90
2018-06-13T20:29:21.895Z,61.60
2018-06-13T20:31:50.003Z,59.10
2018-06-13T20:34:19.229Z,59.00
2018-06-13T20:36:47.380Z,59.00
2018-06-13T20:39:15.475Z,58.10
2018-06-13T20:41:43.574Z,58.20
2018-06-13T20:44:12.171Z,58.00
2018-06-13T20:46:40.460Z,58.00
2018-06-13T20:49:08.573Z,59.20
2018-06-13T20:51:36.670Z,61.30
2018-06-13T20:54:04.855Z,62.30
2018-06-13T20:56:32.944Z,62.30
2018-06-13T20:59:01.041Z,62.40
2018-06-13T21:01:29.209Z,61.50
2018-06-13T21:03:57.268Z,60.80
2018-06-13T21:06:25.375Z,60.50
2018-06-13T21:08:53.492Z,60.90
2018-06-13T21:11:21.649Z,60.30
2018-06-13T21:13:49.775Z,60.60
2018-06-13T21:16:18.507Z,61.20
2018-06-13T21:18:46.706Z,61.50
2018-06-13T21:21:14.804Z,61.80
2018-06-13T21:23:42.912Z,61.80
2018-06-13T21:26:11.028Z,63.40
2018-06-13T21:28:39.280Z,65.50
2018-06-13T21:31:07.347Z,65.80
2018-06-13T21:33:35.447Z,66.80
2018-06-13T21:36:04.157Z,66.60
2018-06-13T21:38:32.296Z,66.60
2018-06-13T21:41:00.402Z,67.40
2018-06-13T21:43:28.516Z,68.20
2018-06-13T21:45:56.604Z,68.30
2018-06-13T21:50:52.569Z,67.10
2018-06-13T21:53:20.694Z,68.90
2018-06-13T21:55:49.656Z,69.80
2018-06-13T21:58:17.743Z,70.10
2018-06-13T22:00:45.830Z,70.70
2018-06-13T22:03:13.913Z,71.10
2018-06-13T22:05:42.012Z,71.20
2018-06-13T22:08:10.109Z,71.80
2018-06-13T22:10:38.238Z,71.60
2018-06-13T22:13:06.356Z,71.70
2018-06-13T22:15:34.430Z,71.90
2018-06-13T22:18:02.545Z,71.40
2018-06-13T22:20:30.641Z,72.10
2018-06-13T22:22:58.738Z,72.20
2018-06-13T22:25:26.821Z,72.50
2018-06-13T22:27:54.904Z,73.00
2018-06-13T22:30:22.988Z,73.80
2018-06-13T22:32:51.100Z,74.40
2018-06-13T22:35:19.217Z,75.60
2018-06-13T22:37:47.304Z,77.50
2018-06-13T22:40:15.436Z,79.00
2018-06-13T22:42:43.521Z,78.80
2018-06-13T22:45:11.629Z,80.20
2018-06-13T22:47:39.759Z,81.60
2018-06-13T22:50:07.851Z,81.60
2018-06-13T22:52:35.966Z,81.00
2018-06-13T22:55:04.085Z,80.90
2018-06-13T22:57:32.199Z,80.70
2018-06-13T23:00:00.350Z,82.10
2018-06-13T23:02:28.407Z,80.80
2018-06-13T23:04:56.527Z,80.30
2018-06-13T23:09:59.147Z,81.50
2018-06-13T23:12:27.239Z,79.80
2018-06-13T23:14:55.440Z,80.60
2018-06-13T23:17:23.546Z,80.80
2018-06-13T23:19:51.655Z,81.40
2018-06-13T23:22:19.830Z,82.40
2018-06-13T23:24:47.924Z,82.70
2018-06-13T23:27:16.024Z,83.40
2018-06-13T23:29:44.117Z,83.30
2018-06-13T23:32:12.225Z,84.20
2018-06-13T23:34:40.323Z,86.10
2018-06-13T23:37:08.424Z,85.70
2018-06-13T23:39:36.540Z,85.30
2018-06-13T23:42:04.627Z,86.40
2018-06-13T23:44:32.740Z,85.90
2018-06-13T23:47:00.812Z,86.20
2018-06-13T23:49:28.976Z,87.60
2018-06-13T23:51:57.107Z,85.50
2018-06-13T23:54:25.220Z,85.60
2018-06-13T23:56:53.354Z,86.80
2018-06-13T23:59:21.455Z,84.10
